Terminal Aerodrome Forecast
Issued by NWS

Home | Current Version | Previous Version | Text Only | Print | Product List | Glossary Off
Versions: 1 2 3 4 5 6 7 8 9 10 11 12 13 14 15 16 17 18 19 20 21 22 23

535
FTUS43 KBIS 210849 AAB
TAFMOT
TAF AMD
KMOT 210849Z 2109/2206 29020G30KT P6SM SKC
     FM211100 30017G24KT P6SM SCT025
      TEMPO 2112/2116 BKN025
     FM211600 28014G19KT P6SM FEW025 FEW300
     FM212200 28009KT P6SM FEW200
     FM220200 23006KT P6SM FEW250=

USA.gov is the U.S. government's official web portal to all federal, state and local government web resources and services.